Time;durP1;ratioP1;P1;durP2;ratioP2;P2;SDS_P1;SDS_P2;PMS_P1;PMS_P2;Temp;Humidity;BMP_temperature;BMP_pressure;BME280_temperature;BME280_humidity;BME280_pressure;Samples;Min_cycle;Max_cycle;Signal;HPM_P1;HPM_P2
2022/05/24 00:00:00;;;;;;;3.45;2.6;;;;;;;15.62;95.09375;94399.72;;;;
2022/05/24 00:01:06;;;;;;;3.45;2.6;;;;;;;15.62;95.09375;94399.72;;;;
2022/05/24 00:02:07;;;;;;;3.45;2.6;;;;;;;15.62;95.09375;94399.72;;;;
2022/05/24 00:03:07;;;;;;;3.45;2.6;;;;;;;15.62;95.09375;94399.72;;;;
2022/05/24 00:04:08;;;;;;;3.45;2.6;;;;;;;15.62;95.09375;94399.72;;;;
2022/05/24 00:05:08;;;;;;;3.45;2.6;;;;;;;15.62;95.09375;94399.72;;;;
2022/05/24 00:06:10;;;;;;;3.45;2.6;;;;;;;15.62;95.09375;94399.72;;;;
2022/05/24 00:07:11;;;;;;;4.45;2.6;;;;;;;15.62;95.05078;94398.39;;;;
2022/05/24 00:08:12;;;;;;;4.45;2.6;;;;;;;15.62;95.05078;94398.39;;;;
2022/05/24 00:09:13;;;;;;;4.45;2.6;;;;;;;15.62;95.05078;94398.39;;;;
2022/05/24 00:10:13;;;;;;;4.45;2.6;;;;;;;15.62;95.05078;94398.39;;;;
2022/05/24 00:11:16;;;;;;;4.45;2.6;;;;;;;15.62;95.05078;94398.39;;;;
2022/05/24 00:12:17;;;;;;;4.45;2.6;;;;;;;15.62;95.05078;94398.39;;;;
2022/05/24 00:13:18;;;;;;;4.45;2.6;;;;;;;15.62;95.05078;94398.39;;;;
2022/05/24 00:15:19;;;;;;;4.45;2.6;;;;;;;15.62;95.05078;94398.39;;;;
2022/05/24 00:16:21;;;;;;;4.45;2.6;;;;;;;15.62;95.05078;94398.39;;;;
2022/05/24 00:17:21;;;;;;;4.45;2.6;;;;;;;15.62;95.05078;94398.39;;;;
2022/05/24 00:18:22;;;;;;;4.95;2.65;;;;;;;15.66;95.30762;94396.37;;;;
2022/05/24 00:19:25;;;;;;;4.95;2.65;;;;;;;15.66;95.30762;94396.37;;;;
2022/05/24 00:20:26;;;;;;;4.95;2.65;;;;;;;15.66;95.30762;94396.37;;;;
2022/05/24 00:21:29;;;;;;;4.95;2.65;;;;;;;15.66;95.30762;94396.37;;;;
2022/05/24 00:22:30;;;;;;;4.95;2.65;;;;;;;15.66;95.30762;94396.37;;;;
2022/05/24 00:23:31;;;;;;;4.95;2.65;;;;;;;15.66;95.30762;94396.37;;;;
2022/05/24 00:24:32;;;;;;;4.95;2.65;;;;;;;15.66;95.30762;94396.37;;;;
2022/05/24 00:25:32;;;;;;;4.95;2.65;;;;;;;15.66;95.30762;94396.37;;;;
2022/05/24 00:26:36;;;;;;;4.95;2.65;;;;;;;15.66;95.30762;94396.37;;;;
2022/05/24 00:27:36;;;;;;;4.95;2.65;;;;;;;15.66;95.30762;94396.37;;;;
2022/05/24 00:28:37;;;;;;;4.65;2.85;;;;;;;15.62;95.49219;94395.32;;;;
2022/05/24 00:29:37;;;;;;;4.65;2.85;;;;;;;15.62;95.49219;94395.32;;;;
2022/05/24 00:30:38;;;;;;;4.65;2.85;;;;;;;15.62;95.49219;94395.32;;;;
2022/05/24 00:31:38;;;;;;;4.65;2.85;;;;;;;15.62;95.49219;94395.32;;;;
2022/05/24 00:32:39;;;;;;;4.65;2.85;;;;;;;15.62;95.49219;94395.32;;;;
2022/05/24 00:33:40;;;;;;;4.65;2.85;;;;;;;15.62;95.49219;94395.32;;;;
2022/05/24 00:34:40;;;;;;;4.65;2.85;;;;;;;15.62;95.49219;94395.32;;;;
2022/05/24 00:35:41;;;;;;;4.65;2.85;;;;;;;15.62;95.49219;94395.32;;;;
2022/05/24 00:36:42;;;;;;;4.65;2.85;;;;;;;15.62;95.49219;94395.32;;;;
2022/05/24 00:37:43;;;;;;;4.65;2.85;;;;;;;15.62;95.49219;94395.32;;;;
2022/05/24 00:38:45;;;;;;;4.65;2.85;;;;;;;15.62;95.49219;94395.32;;;;
2022/05/24 00:39:46;;;;;;;4.6;2.95;;;;;;;15.65;95.98828;94386.27;;;;
2022/05/24 00:40:47;;;;;;;4.6;2.95;;;;;;;15.65;95.98828;94386.27;;;;
2022/05/24 00:41:57;;;;;;;4.6;2.95;;;;;;;15.65;95.98828;94386.27;;;;
2022/05/24 00:43:05;;;;;;;4.6;2.95;;;;;;;15.65;95.98828;94386.27;;;;
2022/05/24 00:44:12;;;;;;;4.6;2.95;;;;;;;15.65;95.98828;94386.27;;;;
2022/05/24 00:45:21;;;;;;;4.6;2.95;;;;;;;15.65;95.98828;94386.27;;;;
2022/05/24 00:46:29;;;;;;;4.6;2.95;;;;;;;15.65;95.98828;94386.27;;;;
2022/05/24 00:47:40;;;;;;;4.6;2.95;;;;;;;15.65;95.98828;94386.27;;;;
2022/05/24 00:48:48;;;;;;;4.6;2.95;;;;;;;15.65;95.98828;94386.27;;;;
2022/05/24 00:49:52;;;;;;;4.6;2.95;;;;;;;15.65;95.98828;94386.27;;;;
2022/05/24 00:50:57;;;;;;;5;3.1;;;;;;;15.58;96.04785;94399.97;;;;
2022/05/24 00:52:01;;;;;;;5;3.1;;;;;;;15.58;96.04785;94399.97;;;;
2022/05/24 00:53:05;;;;;;;5;3.1;;;;;;;15.58;96.04785;94399.97;;;;
2022/05/24 00:54:11;;;;;;;5;3.1;;;;;;;15.58;96.04785;94399.97;;;;
2022/05/24 00:55:12;;;;;;;5;3.1;;;;;;;15.58;96.04785;94399.97;;;;
2022/05/24 00:56:15;;;;;;;5;3.1;;;;;;;15.58;96.04785;94399.97;;;;
2022/05/24 00:57:21;;;;;;;5;3.1;;;;;;;15.58;96.04785;94399.97;;;;
2022/05/24 00:58:28;;;;;;;5;3.1;;;;;;;15.58;96.04785;94399.97;;;;
2022/05/24 00:59:37;;;;;;;5;3.1;;;;;;;15.58;96.04785;94399.97;;;;
2022/05/24 01:00:41;;;;;;;5.25;3.5;;;;;;;15.62;96.48926;94398.39;;;;
2022/05/24 01:01:42;;;;;;;5.25;3.5;;;;;;;15.62;96.48926;94398.39;;;;
2022/05/24 01:02:45;;;;;;;5.25;3.5;;;;;;;15.62;96.48926;94398.39;;;;
2022/05/24 01:03:46;;;;;;;5.25;3.5;;;;;;;15.62;96.48926;94398.39;;;;
2022/05/24 01:04:46;;;;;;;5.25;3.5;;;;;;;15.62;96.48926;94398.39;;;;
2022/05/24 01:05:47;;;;;;;5.25;3.5;;;;;;;15.62;96.48926;94398.39;;;;
2022/05/24 01:06:48;;;;;;;5.25;3.5;;;;;;;15.62;96.48926;94398.39;;;;
2022/05/24 01:07:49;;;;;;;5.25;3.5;;;;;;;15.62;96.48926;94398.39;;;;
2022/05/24 01:08:49;;;;;;;5.25;3.5;;;;;;;15.62;96.48926;94398.39;;;;
2022/05/24 01:09:52;;;;;;;5.25;3.5;;;;;;;15.62;96.48926;94398.39;;;;
2022/05/24 01:10:57;;;;;;;5.25;3.5;;;;;;;15.62;96.48926;94398.39;;;;
2022/05/24 01:11:57;;;;;;;8.150001;3.3;;;;;;;15.59;96.54785;94403.85;;;;
2022/05/24 01:13:01;;;;;;;8.150001;3.3;;;;;;;15.59;96.54785;94403.85;;;;
2022/05/24 01:14:07;;;;;;;8.150001;3.3;;;;;;;15.59;96.54785;94403.85;;;;
2022/05/24 01:15:10;;;;;;;8.150001;3.3;;;;;;;15.59;96.54785;94403.85;;;;
2022/05/24 01:16:14;;;;;;;8.150001;3.3;;;;;;;15.59;96.54785;94403.85;;;;
2022/05/24 01:17:14;;;;;;;8.150001;3.3;;;;;;;15.59;96.54785;94403.85;;;;
2022/05/24 01:18:15;;;;;;;8.150001;3.3;;;;;;;15.59;96.54785;94403.85;;;;
2022/05/24 01:19:15;;;;;;;8.150001;3.3;;;;;;;15.59;96.54785;94403.85;;;;
2022/05/24 01:20:26;;;;;;;8.150001;3.3;;;;;;;15.59;96.54785;94403.85;;;;
2022/05/24 01:21:27;;;;;;;8.150001;3.3;;;;;;;15.59;96.54785;94403.85;;;;
2022/05/24 01:22:27;;;;;;;5.450001;3.55;;;;;;;15.61;96.87402;94377.34;;;;
2022/05/24 01:27:35;;;;;;;5.450001;3.55;;;;;;;15.61;96.87402;94377.34;;;;
2022/05/24 01:28:36;;;;;;;5.450001;3.55;;;;;;;15.61;96.87402;94377.34;;;;
2022/05/24 01:29:41;;;;;;;5.450001;3.55;;;;;;;15.61;96.87402;94377.34;;;;
2022/05/24 01:30:42;;;;;;;5.450001;3.55;;;;;;;15.61;96.87402;94377.34;;;;
2022/05/24 01:36:53;;;;;;;7;3.9;;;;;;;15.58;96.92188;94381.87;;;;
2022/05/24 01:37:53;;;;;;;7;3.9;;;;;;;15.58;96.92188;94381.87;;;;
2022/05/24 01:38:54;;;;;;;7;3.9;;;;;;;15.58;96.92188;94381.87;;;;
2022/05/24 01:39:59;;;;;;;7;3.9;;;;;;;15.58;96.92188;94381.87;;;;
2022/05/24 01:41:02;;;;;;;7;3.9;;;;;;;15.58;96.92188;94381.87;;;;
2022/05/24 01:42:03;;;;;;;7;3.9;;;;;;;15.58;96.92188;94381.87;;;;
2022/05/24 01:43:05;;;;;;;7;3.9;;;;;;;15.58;96.92188;94381.87;;;;
2022/05/24 01:44:06;;;;;;;7;3.9;;;;;;;15.58;96.92188;94381.87;;;;
2022/05/24 01:45:08;;;;;;;7;3.9;;;;;;;15.58;96.92188;94381.87;;;;
2022/05/24 01:46:15;;;;;;;7;3.9;;;;;;;15.58;96.92188;94381.87;;;;
2022/05/24 01:47:20;;;;;;;7;3.9;;;;;;;15.58;96.92188;94381.87;;;;
2022/05/24 01:48:23;;;;;;;7;3.9;;;;;;;15.58;96.92188;94381.87;;;;
2022/05/24 01:49:28;;;;;;;7;3.9;;;;;;;15.58;96.92188;94381.87;;;;
2022/05/24 01:50:34;;;;;;;7;3.9;;;;;;;15.58;96.92188;94381.87;;;;
2022/05/24 01:51:36;;;;;;;7;3.9;;;;;;;15.58;96.92188;94381.87;;;;
2022/05/24 01:52:43;;;;;;;7;3.9;;;;;;;15.58;96.92188;94381.87;;;;
2022/05/24 01:53:48;;;;;;;7;3.9;;;;;;;15.58;96.92188;94381.87;;;;
2022/05/24 01:54:54;;;;;;;5.349999;3.750001;;;;;;;15.54;97.24023;94378;;;;
2022/05/24 01:56:00;;;;;;;5.349999;3.750001;;;;;;;15.54;97.24023;94378;;;;
2022/05/24 01:57:01;;;;;;;5.349999;3.750001;;;;;;;15.54;97.24023;94378;;;;
2022/05/24 01:58:09;;;;;;;5.349999;3.750001;;;;;;;15.54;97.24023;94378;;;;
2022/05/24 01:59:13;;;;;;;5.349999;3.750001;;;;;;;15.54;97.24023;94378;;;;
2022/05/24 02:00:17;;;;;;;5.349999;3.750001;;;;;;;15.54;97.24023;94378;;;;
2022/05/24 02:01:19;;;;;;;5.349999;3.750001;;;;;;;15.54;97.24023;94378;;;;
2022/05/24 02:02:27;;;;;;;5.349999;3.750001;;;;;;;15.54;97.24023;94378;;;;
2022/05/24 02:03:27;;;;;;;5.349999;3.750001;;;;;;;15.54;97.24023;94378;;;;
2022/05/24 02:04:28;;;;;;;5.349999;3.750001;;;;;;;15.54;97.24023;94378;;;;
2022/05/24 02:05:31;;;;;;;5.8;3.85;;;;;;;15.56;97.54492;94369.75;;;;
2022/05/24 02:06:34;;;;;;;5.8;3.85;;;;;;;15.56;97.54492;94369.75;;;;
2022/05/24 02:07:35;;;;;;;5.8;3.85;;;;;;;15.56;97.54492;94369.75;;;;
2022/05/24 02:08:36;;;;;;;5.8;3.85;;;;;;;15.56;97.54492;94369.75;;;;
2022/05/24 02:09:37;;;;;;;5.8;3.85;;;;;;;15.56;97.54492;94369.75;;;;
2022/05/24 02:10:39;;;;;;;5.8;3.85;;;;;;;15.56;97.54492;94369.75;;;;
2022/05/24 02:11:46;;;;;;;5.8;3.85;;;;;;;15.56;97.54492;94369.75;;;;
2022/05/24 02:12:47;;;;;;;5.8;3.85;;;;;;;15.56;97.54492;94369.75;;;;
2022/05/24 02:13:52;;;;;;;5.8;3.85;;;;;;;15.56;97.54492;94369.75;;;;
2022/05/24 02:14:58;;;;;;;5.8;3.85;;;;;;;15.56;97.54492;94369.75;;;;
2022/05/24 02:16:01;;;;;;;5.3;3.95;;;;;;;15.5;97.53223;94354.42;;;;
2022/05/24 02:17:07;;;;;;;5.3;3.95;;;;;;;15.5;97.53223;94354.42;;;;
2022/05/24 02:18:11;;;;;;;5.3;3.95;;;;;;;15.5;97.53223;94354.42;;;;
2022/05/24 02:19:15;;;;;;;5.3;3.95;;;;;;;15.5;97.53223;94354.42;;;;
2022/05/24 02:20:16;;;;;;;5.3;3.95;;;;;;;15.5;97.53223;94354.42;;;;
2022/05/24 02:21:22;;;;;;;5.3;3.95;;;;;;;15.5;97.53223;94354.42;;;;
2022/05/24 02:22:22;;;;;;;5.3;3.95;;;;;;;15.5;97.53223;94354.42;;;;
2022/05/24 02:23:26;;;;;;;5.3;3.95;;;;;;;15.5;97.53223;94354.42;;;;
2022/05/24 02:24:26;;;;;;;5.3;3.95;;;;;;;15.5;97.53223;94354.42;;;;
2022/05/24 02:25:27;;;;;;;5.3;3.95;;;;;;;15.5;97.53223;94354.42;;;;
2022/05/24 02:26:34;;;;;;;5.3;3.95;;;;;;;15.5;97.53223;94354.42;;;;
2022/05/24 02:27:34;;;;;;;5.3;3.95;;;;;;;15.5;97.53223;94354.42;;;;
2022/05/24 02:28:39;;;;;;;5.3;3.95;;;;;;;15.5;97.53223;94354.42;;;;
2022/05/24 02:29:39;;;;;;;5.3;3.95;;;;;;;15.5;97.53223;94354.42;;;;
2022/05/24 02:30:40;;;;;;;5.3;3.95;;;;;;;15.5;97.53223;94354.42;;;;
2022/05/24 02:31:45;;;;;;;5.3;3.95;;;;;;;15.5;97.53223;94354.42;;;;
2022/05/24 02:32:46;;;;;;;5.3;3.95;;;;;;;15.5;97.53223;94354.42;;;;
2022/05/24 02:33:47;;;;;;;5.3;3.95;;;;;;;15.5;97.53223;94354.42;;;;
2022/05/24 02:34:48;;;;;;;5.3;3.95;;;;;;;15.5;97.53223;94354.42;;;;
2022/05/24 02:35:49;;;;;;;5.3;3.95;;;;;;;15.5;97.53223;94354.42;;;;
2022/05/24 02:36:51;;;;;;;5.900001;4.1;;;;;;;15.46;97.7832;94330.17;;;;
2022/05/24 02:37:51;;;;;;;5.900001;4.1;;;;;;;15.46;97.7832;94330.17;;;;
2022/05/24 02:38:51;;;;;;;5.900001;4.1;;;;;;;15.46;97.7832;94330.17;;;;
2022/05/24 02:45:06;;;;;;;5.900001;4.1;;;;;;;15.46;97.7832;94330.17;;;;
2022/05/24 02:46:08;;;;;;;5.900001;4.1;;;;;;;15.46;97.7832;94330.17;;;;
2022/05/24 02:47:09;;;;;;;5.900001;4.1;;;;;;;15.46;97.7832;94330.17;;;;
2022/05/24 02:48:10;;;;;;;5.4;3.95;;;;;;;15.46;97.99707;94329.37;;;;
2022/05/24 02:49:10;;;;;;;5.4;3.95;;;;;;;15.46;97.99707;94329.37;;;;
2022/05/24 02:50:11;;;;;;;5.4;3.95;;;;;;;15.46;97.99707;94329.37;;;;
2022/05/24 02:51:12;;;;;;;5.4;3.95;;;;;;;15.46;97.99707;94329.37;;;;
2022/05/24 02:52:14;;;;;;;5.4;3.95;;;;;;;15.46;97.99707;94329.37;;;;
2022/05/24 02:53:15;;;;;;;5.4;3.95;;;;;;;15.46;97.99707;94329.37;;;;
2022/05/24 02:54:16;;;;;;;5.4;3.95;;;;;;;15.46;97.99707;94329.37;;;;
2022/05/24 02:55:16;;;;;;;5.4;3.95;;;;;;;15.46;97.99707;94329.37;;;;
2022/05/24 02:56:17;;;;;;;5.4;3.95;;;;;;;15.46;97.99707;94329.37;;;;
2022/05/24 02:57:18;;;;;;;5.4;3.95;;;;;;;15.46;97.99707;94329.37;;;;
2022/05/24 02:58:19;;;;;;;5.199999;4.55;;;;;;;15.39;97.98242;94315.91;;;;
2022/05/24 02:59:19;;;;;;;5.199999;4.55;;;;;;;15.39;97.98242;94315.91;;;;
2022/05/24 03:00:19;;;;;;;5.199999;4.55;;;;;;;15.39;97.98242;94315.91;;;;
2022/05/24 03:01:23;;;;;;;5.199999;4.55;;;;;;;15.39;97.98242;94315.91;;;;
2022/05/24 03:02:26;;;;;;;5.199999;4.55;;;;;;;15.39;97.98242;94315.91;;;;
2022/05/24 03:03:27;;;;;;;5.199999;4.55;;;;;;;15.39;97.98242;94315.91;;;;
2022/05/24 03:04:27;;;;;;;5.199999;4.55;;;;;;;15.39;97.98242;94315.91;;;;
2022/05/24 03:05:29;;;;;;;5.199999;4.55;;;;;;;15.39;97.98242;94315.91;;;;
2022/05/24 03:09:33;;;;;;;5.199999;4.55;;;;;;;15.39;97.98242;94315.91;;;;
2022/05/24 03:10:34;;;;;;;4.4;4;;;;;;;15.39;98.23145;94318.97;;;;
2022/05/24 03:14:14;;;;;;;4.4;4;;;;;;;15.39;98.23145;94318.97;;;;
2022/05/24 03:15:14;;;;;;;4.4;4;;;;;;;15.39;98.23145;94318.97;;;;
2022/05/24 03:16:16;;;;;;;4.4;4;;;;;;;15.39;98.23145;94318.97;;;;
2022/05/24 03:17:16;;;;;;;4.4;4;;;;;;;15.39;98.23145;94318.97;;;;
2022/05/24 03:18:18;;;;;;;4.4;4;;;;;;;15.39;98.23145;94318.97;;;;
2022/05/24 03:19:20;;;;;;;4.8;3.95;;;;;;;15.39;98.28516;94332.28;;;;
2022/05/24 03:20:21;;;;;;;4.8;3.95;;;;;;;15.39;98.28516;94332.28;;;;
2022/05/24 03:21:22;;;;;;;4.8;3.95;;;;;;;15.39;98.28516;94332.28;;;;
2022/05/24 03:22:23;;;;;;;4.8;3.95;;;;;;;15.39;98.28516;94332.28;;;;
2022/05/24 03:23:23;;;;;;;4.8;3.95;;;;;;;15.39;98.28516;94332.28;;;;
2022/05/24 03:24:24;;;;;;;4.8;3.95;;;;;;;15.39;98.28516;94332.28;;;;
2022/05/24 03:25:24;;;;;;;4.8;3.95;;;;;;;15.39;98.28516;94332.28;;;;
2022/05/24 03:26:25;;;;;;;4.8;3.95;;;;;;;15.39;98.28516;94332.28;;;;
2022/05/24 03:27:26;;;;;;;4.8;3.95;;;;;;;15.39;98.28516;94332.28;;;;
2022/05/24 03:28:26;;;;;;;4.8;3.95;;;;;;;15.39;98.28516;94332.28;;;;
2022/05/24 03:29:27;;;;;;;4.8;3.95;;;;;;;15.39;98.28516;94332.28;;;;
2022/05/24 03:30:27;;;;;;;5.4;3.75;;;;;;;15.33;98.23828;94321.86;;;;
2022/05/24 03:31:28;;;;;;;5.4;3.75;;;;;;;15.33;98.23828;94321.86;;;;
2022/05/24 03:32:28;;;;;;;5.4;3.75;;;;;;;15.33;98.23828;94321.86;;;;
2022/05/24 03:33:29;;;;;;;5.4;3.75;;;;;;;15.33;98.23828;94321.86;;;;
2022/05/24 03:34:29;;;;;;;5.4;3.75;;;;;;;15.33;98.23828;94321.86;;;;
2022/05/24 03:35:30;;;;;;;5.4;3.75;;;;;;;15.33;98.23828;94321.86;;;;
2022/05/24 03:36:31;;;;;;;5.4;3.75;;;;;;;15.33;98.23828;94321.86;;;;
2022/05/24 03:37:31;;;;;;;5.4;3.75;;;;;;;15.33;98.23828;94321.86;;;;
2022/05/24 03:38:32;;;;;;;5.4;3.75;;;;;;;15.33;98.23828;94321.86;;;;
2022/05/24 03:39:32;;;;;;;5.4;3.75;;;;;;;15.33;98.23828;94321.86;;;;
2022/05/24 03:40:34;;;;;;;4.849999;4.349999;;;;;;;15.29;98.39453;94320.65;;;;
2022/05/24 03:41:35;;;;;;;4.849999;4.349999;;;;;;;15.29;98.39453;94320.65;;;;
2022/05/24 03:42:36;;;;;;;4.849999;4.349999;;;;;;;15.29;98.39453;94320.65;;;;
2022/05/24 03:43:37;;;;;;;4.849999;4.349999;;;;;;;15.29;98.39453;94320.65;;;;
2022/05/24 03:44:38;;;;;;;4.849999;4.349999;;;;;;;15.29;98.39453;94320.65;;;;
2022/05/24 03:45:39;;;;;;;4.849999;4.349999;;;;;;;15.29;98.39453;94320.65;;;;
2022/05/24 03:46:40;;;;;;;4.849999;4.349999;;;;;;;15.29;98.39453;94320.65;;;;
2022/05/24 03:47:40;;;;;;;4.849999;4.349999;;;;;;;15.29;98.39453;94320.65;;;;
2022/05/24 03:48:41;;;;;;;4.849999;4.349999;;;;;;;15.29;98.39453;94320.65;;;;
2022/05/24 03:49:41;;;;;;;4.849999;4.349999;;;;;;;15.29;98.39453;94320.65;;;;
2022/05/24 03:50:42;;;;;;;4.849999;4.349999;;;;;;;15.29;98.39453;94320.65;;;;
2022/05/24 03:51:42;;;;;;;4.5;3.75;;;;;;;15.28;98.5625;94323.58;;;;
2022/05/24 03:52:43;;;;;;;4.5;3.75;;;;;;;15.28;98.5625;94323.58;;;;
2022/05/24 03:53:43;;;;;;;4.5;3.75;;;;;;;15.28;98.5625;94323.58;;;;
2022/05/24 03:54:44;;;;;;;4.5;3.75;;;;;;;15.28;98.5625;94323.58;;;;
2022/05/24 03:55:44;;;;;;;4.5;3.75;;;;;;;15.28;98.5625;94323.58;;;;
2022/05/24 03:58:00;;;;;;;4.5;3.75;;;;;;;15.28;98.5625;94323.58;;;;
2022/05/24 03:59:01;;;;;;;4.5;3.75;;;;;;;15.28;98.5625;94323.58;;;;
2022/05/24 04:00:02;;;;;;;4.5;3.75;;;;;;;15.28;98.5625;94323.58;;;;
2022/05/24 04:01:04;;;;;;;4.5;3.75;;;;;;;15.28;98.5625;94323.58;;;;
2022/05/24 04:02:05;;;;;;;5.050001;4.05;;;;;;;15.27;98.69238;94332.5;;;;
2022/05/24 04:03:06;;;;;;;5.050001;4.05;;;;;;;15.27;98.69238;94332.5;;;;
2022/05/24 04:04:08;;;;;;;5.050001;4.05;;;;;;;15.27;98.69238;94332.5;;;;
2022/05/24 04:05:09;;;;;;;5.050001;4.05;;;;;;;15.27;98.69238;94332.5;;;;
2022/05/24 04:06:10;;;;;;;5.050001;4.05;;;;;;;15.27;98.69238;94332.5;;;;
2022/05/24 04:07:10;;;;;;;5.050001;4.05;;;;;;;15.27;98.69238;94332.5;;;;
2022/05/24 04:08:12;;;;;;;5.050001;4.05;;;;;;;15.27;98.69238;94332.5;;;;
2022/05/24 04:09:12;;;;;;;5.050001;4.05;;;;;;;15.27;98.69238;94332.5;;;;
2022/05/24 04:10:13;;;;;;;5.050001;4.05;;;;;;;15.27;98.69238;94332.5;;;;
2022/05/24 04:11:15;;;;;;;5.050001;4.05;;;;;;;15.27;98.69238;94332.5;;;;
2022/05/24 04:12:15;;;;;;;5.050001;4.05;;;;;;;15.27;98.69238;94332.5;;;;
2022/05/24 04:13:16;;;;;;;4.349999;3.85;;;;;;;15.36;98.9375;94329.32;;;;
2022/05/24 04:14:16;;;;;;;4.349999;3.85;;;;;;;15.36;98.9375;94329.32;;;;
2022/05/24 04:15:17;;;;;;;4.349999;3.85;;;;;;;15.36;98.9375;94329.32;;;;
2022/05/24 04:16:18;;;;;;;4.349999;3.85;;;;;;;15.36;98.9375;94329.32;;;;
2022/05/24 04:17:20;;;;;;;4.349999;3.85;;;;;;;15.36;98.9375;94329.32;;;;
2022/05/24 04:18:21;;;;;;;4.349999;3.85;;;;;;;15.36;98.9375;94329.32;;;;
2022/05/24 04:19:22;;;;;;;4.349999;3.85;;;;;;;15.36;98.9375;94329.32;;;;
2022/05/24 04:20:22;;;;;;;4.349999;3.85;;;;;;;15.36;98.9375;94329.32;;;;
2022/05/24 04:21:25;;;;;;;4.349999;3.85;;;;;;;15.36;98.9375;94329.32;;;;
2022/05/24 04:22:26;;;;;;;4.349999;3.85;;;;;;;15.36;98.9375;94329.32;;;;
2022/05/24 04:23:26;;;;;;;4.25;3.6;;;;;;;15.3;98.83691;94340.11;;;;
2022/05/24 04:24:27;;;;;;;4.25;3.6;;;;;;;15.3;98.83691;94340.11;;;;
2022/05/24 04:25:27;;;;;;;4.25;3.6;;;;;;;15.3;98.83691;94340.11;;;;
2022/05/24 04:26:33;;;;;;;4.25;3.6;;;;;;;15.3;98.83691;94340.11;;;;
2022/05/24 04:27:34;;;;;;;4.25;3.6;;;;;;;15.3;98.83691;94340.11;;;;
2022/05/24 04:28:35;;;;;;;4.25;3.6;;;;;;;15.3;98.83691;94340.11;;;;
2022/05/24 04:29:35;;;;;;;4.25;3.6;;;;;;;15.3;98.83691;94340.11;;;;
2022/05/24 04:30:37;;;;;;;4.25;3.6;;;;;;;15.3;98.83691;94340.11;;;;
2022/05/24 04:31:38;;;;;;;4.25;3.6;;;;;;;15.3;98.83691;94340.11;;;;
2022/05/24 04:32:38;;;;;;;4.25;3.6;;;;;;;15.3;98.83691;94340.11;;;;
2022/05/24 04:33:39;;;;;;;4.25;3.6;;;;;;;15.3;98.83691;94340.11;;;;
2022/05/24 04:34:40;;;;;;;5.6;3.7;;;;;;;15.24;98.86719;94336.22;;;;
2022/05/24 04:35:40;;;;;;;5.6;3.7;;;;;;;15.24;98.86719;94336.22;;;;
2022/05/24 04:36:41;;;;;;;5.6;3.7;;;;;;;15.24;98.86719;94336.22;;;;
2022/05/24 04:37:41;;;;;;;5.6;3.7;;;;;;;15.24;98.86719;94336.22;;;;
2022/05/24 04:38:42;;;;;;;5.6;3.7;;;;;;;15.24;98.86719;94336.22;;;;
2022/05/24 04:39:42;;;;;;;5.6;3.7;;;;;;;15.24;98.86719;94336.22;;;;
2022/05/24 04:45:56;;;;;;;6.1;3.75;;;;;;;15.26;98.99023;94358.98;;;;
2022/05/24 04:47:13;;;;;;;6.1;3.75;;;;;;;15.26;98.99023;94358.98;;;;
2022/05/24 04:48:14;;;;;;;6.1;3.75;;;;;;;15.26;98.99023;94358.98;;;;
2022/05/24 04:49:14;;;;;;;6.1;3.75;;;;;;;15.26;98.99023;94358.98;;;;
2022/05/24 04:50:15;;;;;;;6.1;3.75;;;;;;;15.26;98.99023;94358.98;;;;
2022/05/24 04:51:15;;;;;;;6.1;3.75;;;;;;;15.26;98.99023;94358.98;;;;
2022/05/24 04:52:16;;;;;;;6.1;3.75;;;;;;;15.26;98.99023;94358.98;;;;
2022/05/24 04:53:17;;;;;;;6.1;3.75;;;;;;;15.26;98.99023;94358.98;;;;
2022/05/24 04:54:17;;;;;;;6.1;3.75;;;;;;;15.26;98.99023;94358.98;;;;
2022/05/24 04:55:18;;;;;;;4.45;3.85;;;;;;;15.27;99.10059;94364.6;;;;
2022/05/24 04:56:18;;;;;;;4.45;3.85;;;;;;;15.27;99.10059;94364.6;;;;
2022/05/24 04:57:19;;;;;;;4.45;3.85;;;;;;;15.27;99.10059;94364.6;;;;
2022/05/24 04:58:20;;;;;;;4.45;3.85;;;;;;;15.27;99.10059;94364.6;;;;
2022/05/24 04:59:21;;;;;;;4.45;3.85;;;;;;;15.27;99.10059;94364.6;;;;
2022/05/24 05:00:23;;;;;;;4.45;3.85;;;;;;;15.27;99.10059;94364.6;;;;
2022/05/24 05:01:24;;;;;;;4.45;3.85;;;;;;;15.27;99.10059;94364.6;;;;
2022/05/24 05:02:25;;;;;;;4.45;3.85;;;;;;;15.27;99.10059;94364.6;;;;
2022/05/24 05:03:25;;;;;;;4.45;3.85;;;;;;;15.27;99.10059;94364.6;;;;
2022/05/24 05:04:26;;;;;;;4.45;3.85;;;;;;;15.27;99.10059;94364.6;;;;
2022/05/24 05:05:27;;;;;;;4.45;3.85;;;;;;;15.27;99.10059;94364.6;;;;
2022/05/24 05:06:30;;;;;;;5.05;3.6;;;;;;;15.25;99.18262;94362.2;;;;
2022/05/24 05:07:31;;;;;;;5.05;3.6;;;;;;;15.25;99.18262;94362.2;;;;
2022/05/24 05:08:31;;;;;;;5.05;3.6;;;;;;;15.25;99.18262;94362.2;;;;
2022/05/24 05:09:34;;;;;;;5.05;3.6;;;;;;;15.25;99.18262;94362.2;;;;
2022/05/24 05:10:35;;;;;;;5.05;3.6;;;;;;;15.25;99.18262;94362.2;;;;
2022/05/24 05:11:35;;;;;;;5.05;3.6;;;;;;;15.25;99.18262;94362.2;;;;
2022/05/24 05:12:36;;;;;;;5.05;3.6;;;;;;;15.25;99.18262;94362.2;;;;
2022/05/24 05:13:37;;;;;;;5.05;3.6;;;;;;;15.25;99.18262;94362.2;;;;
2022/05/24 05:14:38;;;;;;;5.05;3.6;;;;;;;15.25;99.18262;94362.2;;;;
2022/05/24 05:15:40;;;;;;;5.05;3.6;;;;;;;15.25;99.18262;94362.2;;;;
2022/05/24 05:16:40;;;;;;;5.4;4.05;;;;;;;15.35;99.38867;94353.44;;;;
2022/05/24 05:17:41;;;;;;;5.4;4.05;;;;;;;15.35;99.38867;94353.44;;;;
2022/05/24 05:18:43;;;;;;;5.4;4.05;;;;;;;15.35;99.38867;94353.44;;;;
2022/05/24 05:19:43;;;;;;;5.4;4.05;;;;;;;15.35;99.38867;94353.44;;;;
2022/05/24 05:20:44;;;;;;;5.4;4.05;;;;;;;15.35;99.38867;94353.44;;;;
2022/05/24 05:21:45;;;;;;;5.4;4.05;;;;;;;15.35;99.38867;94353.44;;;;
2022/05/24 05:22:46;;;;;;;5.4;4.05;;;;;;;15.35;99.38867;94353.44;;;;
2022/05/24 05:23:46;;;;;;;5.4;4.05;;;;;;;15.35;99.38867;94353.44;;;;
2022/05/24 05:24:47;;;;;;;5.4;4.05;;;;;;;15.35;99.38867;94353.44;;;;
2022/05/24 05:25:48;;;;;;;5.4;4.05;;;;;;;15.35;99.38867;94353.44;;;;
2022/05/24 05:26:48;;;;;;;5.4;4.05;;;;;;;15.35;99.38867;94353.44;;;;
2022/05/24 05:27:49;;;;;;;5.400001;4.05;;;;;;;15.38;99.37402;94360.89;;;;
2022/05/24 05:28:50;;;;;;;5.400001;4.05;;;;;;;15.38;99.37402;94360.89;;;;
2022/05/24 05:35:03;;;;;;;5.400001;4.05;;;;;;;15.38;99.37402;94360.89;;;;
2022/05/24 05:36:05;;;;;;;5.400001;4.05;;;;;;;15.38;99.37402;94360.89;;;;
2022/05/24 05:37:06;;;;;;;5.400001;4.05;;;;;;;15.38;99.37402;94360.89;;;;
2022/05/24 05:38:07;;;;;;;4.5;3.45;;;;;;;15.47;99.70801;94366.39;;;;
2022/05/24 05:39:08;;;;;;;4.5;3.45;;;;;;;15.47;99.70801;94366.39;;;;
2022/05/24 05:40:08;;;;;;;4.5;3.45;;;;;;;15.47;99.70801;94366.39;;;;
2022/05/24 05:41:10;;;;;;;4.5;3.45;;;;;;;15.47;99.70801;94366.39;;;;
2022/05/24 05:42:11;;;;;;;4.5;3.45;;;;;;;15.47;99.70801;94366.39;;;;
2022/05/24 05:43:12;;;;;;;4.5;3.45;;;;;;;15.47;99.70801;94366.39;;;;
2022/05/24 05:44:12;;;;;;;4.5;3.45;;;;;;;15.47;99.70801;94366.39;;;;
2022/05/24 05:45:14;;;;;;;4.5;3.45;;;;;;;15.47;99.70801;94366.39;;;;
2022/05/24 05:46:14;;;;;;;4.5;3.45;;;;;;;15.47;99.70801;94366.39;;;;
2022/05/24 05:47:16;;;;;;;4.5;3.45;;;;;;;15.47;99.70801;94366.39;;;;
2022/05/24 05:48:17;;;;;;;4.5;3.45;;;;;;;15.47;99.70801;94366.39;;;;
2022/05/24 05:49:18;;;;;;;4.550001;4.05;;;;;;;15.59;99.9834;94366.55;;;;
2022/05/24 05:50:20;;;;;;;4.550001;4.05;;;;;;;15.59;99.9834;94366.55;;;;
2022/05/24 05:51:20;;;;;;;4.550001;4.05;;;;;;;15.59;99.9834;94366.55;;;;
2022/05/24 05:52:21;;;;;;;4.550001;4.05;;;;;;;15.59;99.9834;94366.55;;;;
2022/05/24 05:53:21;;;;;;;4.550001;4.05;;;;;;;15.59;99.9834;94366.55;;;;
2022/05/24 05:54:23;;;;;;;4.550001;4.05;;;;;;;15.59;99.9834;94366.55;;;;
2022/05/24 05:55:25;;;;;;;4.550001;4.05;;;;;;;15.59;99.9834;94366.55;;;;
2022/05/24 05:56:25;;;;;;;4.550001;4.05;;;;;;;15.59;99.9834;94366.55;;;;
2022/05/24 05:57:26;;;;;;;4.550001;4.05;;;;;;;15.59;99.9834;94366.55;;;;
2022/05/24 05:58:26;;;;;;;4.550001;4.05;;;;;;;15.59;99.9834;94366.55;;;;
2022/05/24 05:59:28;;;;;;;5.7;3.85;;;;;;;15.87;100;94378.97;;;;
2022/05/24 06:00:28;;;;;;;5.7;3.85;;;;;;;15.87;100;94378.97;;;;
2022/05/24 06:01:30;;;;;;;5.7;3.85;;;;;;;15.87;100;94378.97;;;;
2022/05/24 06:02:31;;;;;;;5.7;3.85;;;;;;;15.87;100;94378.97;;;;
2022/05/24 06:03:31;;;;;;;5.7;3.85;;;;;;;15.87;100;94378.97;;;;
2022/05/24 06:04:32;;;;;;;5.7;3.85;;;;;;;15.87;100;94378.97;;;;
2022/05/24 06:05:32;;;;;;;5.7;3.85;;;;;;;15.87;100;94378.97;;;;
2022/05/24 06:06:34;;;;;;;5.7;3.85;;;;;;;15.87;100;94378.97;;;;
2022/05/24 06:07:38;;;;;;;5.7;3.85;;;;;;;15.87;100;94378.97;;;;
2022/05/24 06:08:38;;;;;;;5.7;3.85;;;;;;;15.87;100;94378.97;;;;
2022/05/24 06:09:39;;;;;;;5.7;3.85;;;;;;;15.87;100;94378.97;;;;
2022/05/24 06:10:39;;;;;;;4.849999;4.05;;;;;;;16.28;100;94398.79;;;;
2022/05/24 06:11:41;;;;;;;4.849999;4.05;;;;;;;16.28;100;94398.79;;;;
2022/05/24 06:12:42;;;;;;;4.849999;4.05;;;;;;;16.28;100;94398.79;;;;
2022/05/24 06:13:43;;;;;;;4.849999;4.05;;;;;;;16.28;100;94398.79;;;;
2022/05/24 06:14:43;;;;;;;4.849999;4.05;;;;;;;16.28;100;94398.79;;;;
2022/05/24 06:15:44;;;;;;;4.849999;4.05;;;;;;;16.28;100;94398.79;;;;
2022/05/24 06:16:47;;;;;;;4.849999;4.05;;;;;;;16.28;100;94398.79;;;;
2022/05/24 06:17:48;;;;;;;4.849999;4.05;;;;;;;16.28;100;94398.79;;;;
2022/05/24 06:18:49;;;;;;;4.849999;4.05;;;;;;;16.28;100;94398.79;;;;
2022/05/24 06:19:50;;;;;;;4.849999;4.05;;;;;;;16.28;100;94398.79;;;;
2022/05/24 06:20:50;;;;;;;6.499999;3.3;;;;;;;16.55;100;94419.2;;;;
2022/05/24 06:21:51;;;;;;;6.499999;3.3;;;;;;;16.55;100;94419.2;;;;
2022/05/24 06:22:52;;;;;;;6.499999;3.3;;;;;;;16.55;100;94419.2;;;;